sensor_id;sensor_type;location;lat;lon;timestamp;temperature;humidity
23568;DHT22;11962;50.838;4.430;2022-12-18T00:02:10;-1.00;99.90
23568;DHT22;11962;50.838;4.430;2022-12-18T00:04:35;-1.00;99.90
23568;DHT22;11962;50.838;4.430;2022-12-18T00:07:01;-1.00;99.90
23568;DHT22;11962;50.838;4.430;2022-12-18T00:09:27;-1.10;99.90
23568;DHT22;11962;50.838;4.430;2022-12-18T00:11:53;-1.10;99.90
23568;DHT22;11962;50.838;4.430;2022-12-18T00:14:18;-1.20;99.90
23568;DHT22;11962;50.838;4.430;2022-12-18T00:16:59;-1.20;99.90
23568;DHT22;11962;50.838;4.430;2022-12-18T00:19:26;-1.20;99.90
23568;DHT22;11962;50.838;4.430;2022-12-18T00:21:51;-1.20;99.90
23568;DHT22;11962;50.838;4.430;2022-12-18T00:24:17;-1.30;99.90
23568;DHT22;11962;50.838;4.430;2022-12-18T00:26:44;-1.30;99.90
23568;DHT22;11962;50.838;4.430;2022-12-18T00:29:12;-1.20;99.90
23568;DHT22;11962;50.838;4.430;2022-12-18T00:31:45;-1.30;99.90
23568;DHT22;11962;50.838;4.430;2022-12-18T00:34:12;-1.30;99.90
23568;DHT22;11962;50.838;4.430;2022-12-18T00:36:39;-1.30;99.90
23568;DHT22;11962;50.838;4.430;2022-12-18T00:39:05;-1.40;99.90
23568;DHT22;11962;50.838;4.430;2022-12-18T00:41:31;-1.40;99.90
23568;DHT22;11962;50.838;4.430;2022-12-18T00:44:17;-1.40;99.90
23568;DHT22;11962;50.838;4.430;2022-12-18T00:46:43;-1.40;99.90
23568;DHT22;11962;50.838;4.430;2022-12-18T00:49:13;-1.40;99.90
23568;DHT22;11962;50.838;4.430;2022-12-18T00:51:39;-1.50;99.90
23568;DHT22;11962;50.838;4.430;2022-12-18T00:54:05;-1.50;99.90
23568;DHT22;11962;50.838;4.430;2022-12-18T00:56:31;-1.60;99.90
23568;DHT22;11962;50.838;4.430;2022-12-18T00:58:57;-1.60;99.90
23568;DHT22;11962;50.838;4.430;2022-12-18T01:01:35;-1.60;99.90
23568;DHT22;11962;50.838;4.430;2022-12-18T01:04:02;-1.60;99.90
23568;DHT22;11962;50.838;4.430;2022-12-18T01:06:28;-1.60;99.90
23568;DHT22;11962;50.838;4.430;2022-12-18T01:08:55;-1.60;99.90
23568;DHT22;11962;50.838;4.430;2022-12-18T01:11:21;-1.60;99.90
23568;DHT22;11962;50.838;4.430;2022-12-18T01:13:47;-1.60;99.90
23568;DHT22;11962;50.838;4.430;2022-12-18T01:16:14;-1.70;99.90
23568;DHT22;11962;50.838;4.430;2022-12-18T01:18:40;-1.70;99.90
23568;DHT22;11962;50.838;4.430;2022-12-18T01:21:07;-1.70;99.90
23568;DHT22;11962;50.838;4.430;2022-12-18T01:23:33;-1.70;99.90
23568;DHT22;11962;50.838;4.430;2022-12-18T01:26:07;-1.70;99.90
23568;DHT22;11962;50.838;4.430;2022-12-18T01:28:33;-1.70;99.90
23568;DHT22;11962;50.838;4.430;2022-12-18T01:31:17;-1.70;99.90
23568;DHT22;11962;50.838;4.430;2022-12-18T01:33:44;-1.80;99.90
23568;DHT22;11962;50.838;4.430;2022-12-18T01:36:22;-1.70;99.90
23568;DHT22;11962;50.838;4.430;2022-12-18T01:38:49;-1.80;99.90
23568;DHT22;11962;50.838;4.430;2022-12-18T01:41:18;-1.80;99.90
23568;DHT22;11962;50.838;4.430;2022-12-18T01:43:46;-1.80;99.90
23568;DHT22;11962;50.838;4.430;2022-12-18T01:46:13;-1.90;99.90
23568;DHT22;11962;50.838;4.430;2022-12-18T01:48:40;-1.80;99.90
23568;DHT22;11962;50.838;4.430;2022-12-18T01:51:07;-1.90;99.90
23568;DHT22;11962;50.838;4.430;2022-12-18T01:53:34;-1.90;99.90
23568;DHT22;11962;50.838;4.430;2022-12-18T01:55:59;-1.90;99.90
23568;DHT22;11962;50.838;4.430;2022-12-18T02:01:13;-1.90;99.90
23568;DHT22;11962;50.838;4.430;2022-12-18T02:03:41;-1.90;99.90
23568;DHT22;11962;50.838;4.430;2022-12-18T02:11:35;-2.00;99.90
23568;DHT22;11962;50.838;4.430;2022-12-18T02:14:16;-2.00;99.90
23568;DHT22;11962;50.838;4.430;2022-12-18T02:17:01;-2.00;99.90
23568;DHT22;11962;50.838;4.430;2022-12-18T02:19:37;-2.00;99.90
23568;DHT22;11962;50.838;4.430;2022-12-18T02:22:29;-2.00;99.90
23568;DHT22;11962;50.838;4.430;2022-12-18T02:29:20;-2.10;99.90
23568;DHT22;11962;50.838;4.430;2022-12-18T02:31:28;-2.10;99.90
23568;DHT22;11962;50.838;4.430;2022-12-18T02:34:00;-2.10;99.90
23568;DHT22;11962;50.838;4.430;2022-12-18T02:36:28;-2.10;99.90
23568;DHT22;11962;50.838;4.430;2022-12-18T02:38:56;-2.20;99.90
23568;DHT22;11962;50.838;4.430;2022-12-18T02:41:22;-2.20;99.90
23568;DHT22;11962;50.838;4.430;2022-12-18T02:43:52;-2.20;99.90
23568;DHT22;11962;50.838;4.430;2022-12-18T02:46:45;-2.20;99.90
23568;DHT22;11962;50.838;4.430;2022-12-18T02:51:57;-2.20;99.90
23568;DHT22;11962;50.838;4.430;2022-12-18T02:57:29;-2.20;99.90
23568;DHT22;11962;50.838;4.430;2022-12-18T03:00:14;-2.30;99.90
23568;DHT22;11962;50.838;4.430;2022-12-18T03:03:19;-2.30;99.90
23568;DHT22;11962;50.838;4.430;2022-12-18T03:05:52;-2.40;99.90
23568;DHT22;11962;50.838;4.430;2022-12-18T03:08:28;-2.40;99.90
23568;DHT22;11962;50.838;4.430;2022-12-18T03:10:59;-2.40;99.90
23568;DHT22;11962;50.838;4.430;2022-12-18T03:13:36;-2.50;99.90
23568;DHT22;11962;50.838;4.430;2022-12-18T03:16:06;-2.50;99.90
23568;DHT22;11962;50.838;4.430;2022-12-18T03:18:56;-2.50;99.90
23568;DHT22;11962;50.838;4.430;2022-12-18T03:21:28;-2.50;99.90
23568;DHT22;11962;50.838;4.430;2022-12-18T03:23:55;-2.50;99.90
23568;DHT22;11962;50.838;4.430;2022-12-18T03:26:24;-2.50;99.90
23568;DHT22;11962;50.838;4.430;2022-12-18T03:29:00;-2.50;99.90
23568;DHT22;11962;50.838;4.430;2022-12-18T03:31:29;-2.50;99.90
23568;DHT22;11962;50.838;4.430;2022-12-18T03:33:57;-2.50;99.90
23568;DHT22;11962;50.838;4.430;2022-12-18T03:36:24;-2.50;99.90
23568;DHT22;11962;50.838;4.430;2022-12-18T03:38:50;-2.50;99.90
23568;DHT22;11962;50.838;4.430;2022-12-18T03:41:32;-2.50;99.90
23568;DHT22;11962;50.838;4.430;2022-12-18T03:44:26;-2.50;99.90
23568;DHT22;11962;50.838;4.430;2022-12-18T03:52:36;-2.60;99.90
23568;DHT22;11962;50.838;4.430;2022-12-18T03:55:03;-2.60;99.90
23568;DHT22;11962;50.838;4.430;2022-12-18T03:57:32;-2.60;99.90
23568;DHT22;11962;50.838;4.430;2022-12-18T04:00:11;-2.60;99.90
23568;DHT22;11962;50.838;4.430;2022-12-18T04:02:51;-2.70;99.90
23568;DHT22;11962;50.838;4.430;2022-12-18T04:05:19;-2.60;99.90
23568;DHT22;11962;50.838;4.430;2022-12-18T04:07:47;-2.60;99.90
23568;DHT22;11962;50.838;4.430;2022-12-18T04:10:15;-2.60;99.90
23568;DHT22;11962;50.838;4.430;2022-12-18T04:12:41;-2.70;99.90
23568;DHT22;11962;50.838;4.430;2022-12-18T04:15:08;-2.70;99.90
23568;DHT22;11962;50.838;4.430;2022-12-18T04:17:34;-2.60;99.90
23568;DHT22;11962;50.838;4.430;2022-12-18T04:20:00;-2.60;99.90
23568;DHT22;11962;50.838;4.430;2022-12-18T04:22:25;-2.60;99.90
23568;DHT22;11962;50.838;4.430;2022-12-18T04:24:51;-2.60;99.90
23568;DHT22;11962;50.838;4.430;2022-12-18T04:27:17;-2.60;99.90
23568;DHT22;11962;50.838;4.430;2022-12-18T04:29:42;-2.60;99.90
23568;DHT22;11962;50.838;4.430;2022-12-18T04:32:08;-2.60;99.90
23568;DHT22;11962;50.838;4.430;2022-12-18T04:34:34;-2.60;99.90
23568;DHT22;11962;50.838;4.430;2022-12-18T04:37:00;-2.60;99.90
23568;DHT22;11962;50.838;4.430;2022-12-18T04:39:25;-2.60;99.90
23568;DHT22;11962;50.838;4.430;2022-12-18T04:41:51;-2.60;99.90
23568;DHT22;11962;50.838;4.430;2022-12-18T04:44:17;-2.60;99.90
23568;DHT22;11962;50.838;4.430;2022-12-18T04:46:42;-2.60;99.90
23568;DHT22;11962;50.838;4.430;2022-12-18T04:49:08;-2.60;99.90
23568;DHT22;11962;50.838;4.430;2022-12-18T04:51:36;-2.70;99.90
23568;DHT22;11962;50.838;4.430;2022-12-18T04:54:01;-2.70;99.90
23568;DHT22;11962;50.838;4.430;2022-12-18T04:56:27;-2.70;99.90
23568;DHT22;11962;50.838;4.430;2022-12-18T04:58:53;-2.70;99.90
23568;DHT22;11962;50.838;4.430;2022-12-18T05:01:19;-2.70;99.90
23568;DHT22;11962;50.838;4.430;2022-12-18T05:07:03;-2.70;99.90
23568;DHT22;11962;50.838;4.430;2022-12-18T05:09:29;-2.70;99.90
23568;DHT22;11962;50.838;4.430;2022-12-18T05:11:55;-2.70;99.90
23568;DHT22;11962;50.838;4.430;2022-12-18T05:14:20;-2.70;99.90
23568;DHT22;11962;50.838;4.430;2022-12-18T05:16:46;-2.70;99.90
23568;DHT22;11962;50.838;4.430;2022-12-18T05:19:12;-2.60;99.90
23568;DHT22;11962;50.838;4.430;2022-12-18T05:21:37;-2.70;99.90
23568;DHT22;11962;50.838;4.430;2022-12-18T05:24:03;-2.70;99.90
23568;DHT22;11962;50.838;4.430;2022-12-18T05:26:29;-2.60;99.90
23568;DHT22;11962;50.838;4.430;2022-12-18T05:28:56;-2.60;99.90
23568;DHT22;11962;50.838;4.430;2022-12-18T05:31:22;-2.60;99.90
23568;DHT22;11962;50.838;4.430;2022-12-18T05:43:47;-2.70;99.90
23568;DHT22;11962;50.838;4.430;2022-12-18T05:46:15;-2.60;99.90
23568;DHT22;11962;50.838;4.430;2022-12-18T05:49:05;-2.60;99.90
23568;DHT22;11962;50.838;4.430;2022-12-18T05:51:31;-2.60;99.90
23568;DHT22;11962;50.838;4.430;2022-12-18T05:53:57;-2.60;99.90
23568;DHT22;11962;50.838;4.430;2022-12-18T05:56:23;-2.60;99.90
23568;DHT22;11962;50.838;4.430;2022-12-18T05:58:52;-2.50;99.90
23568;DHT22;11962;50.838;4.430;2022-12-18T06:01:21;-2.50;99.90
23568;DHT22;11962;50.838;4.430;2022-12-18T06:03:47;-2.50;99.90
23568;DHT22;11962;50.838;4.430;2022-12-18T06:06:27;-2.50;99.90
23568;DHT22;11962;50.838;4.430;2022-12-18T06:08:54;-2.40;99.90
23568;DHT22;11962;50.838;4.430;2022-12-18T06:11:22;-2.40;99.90
23568;DHT22;11962;50.838;4.430;2022-12-18T06:13:55;-2.40;99.90
23568;DHT22;11962;50.838;4.430;2022-12-18T06:16:21;-2.40;99.90
23568;DHT22;11962;50.838;4.430;2022-12-18T06:18:47;-2.40;99.90
23568;DHT22;11962;50.838;4.430;2022-12-18T06:21:44;-2.40;99.90
23568;DHT22;11962;50.838;4.430;2022-12-18T06:24:10;-2.40;99.90
23568;DHT22;11962;50.838;4.430;2022-12-18T06:26:37;-2.50;99.90
23568;DHT22;11962;50.838;4.430;2022-12-18T06:29:04;-2.50;99.90
23568;DHT22;11962;50.838;4.430;2022-12-18T06:31:30;-2.50;99.90
23568;DHT22;11962;50.838;4.430;2022-12-18T06:33:56;-2.40;99.90
23568;DHT22;11962;50.838;4.430;2022-12-18T06:36:31;-2.40;99.90
23568;DHT22;11962;50.838;4.430;2022-12-18T06:38:58;-2.40;99.90
23568;DHT22;11962;50.838;4.430;2022-12-18T06:41:23;-2.40;99.90
23568;DHT22;11962;50.838;4.430;2022-12-18T06:43:49;-2.40;99.90
23568;DHT22;11962;50.838;4.430;2022-12-18T06:46:15;-2.40;99.90
23568;DHT22;11962;50.838;4.430;2022-12-18T06:48:41;-2.30;99.90
23568;DHT22;11962;50.838;4.430;2022-12-18T06:51:06;-2.30;99.90
23568;DHT22;11962;50.838;4.430;2022-12-18T06:53:33;-2.30;99.90
23568;DHT22;11962;50.838;4.430;2022-12-18T06:56:04;-2.30;99.90
23568;DHT22;11962;50.838;4.430;2022-12-18T06:58:30;-2.30;99.90
23568;DHT22;11962;50.838;4.430;2022-12-18T07:01:04;-2.30;99.90
23568;DHT22;11962;50.838;4.430;2022-12-18T07:03:30;-2.30;99.90
23568;DHT22;11962;50.838;4.430;2022-12-18T07:05:56;-2.20;99.90
23568;DHT22;11962;50.838;4.430;2022-12-18T07:08:22;-2.20;99.90
23568;DHT22;11962;50.838;4.430;2022-12-18T07:10:47;-2.20;99.90
23568;DHT22;11962;50.838;4.430;2022-12-18T07:13:17;-2.20;99.90
23568;DHT22;11962;50.838;4.430;2022-12-18T07:15:43;-2.10;99.90
23568;DHT22;11962;50.838;4.430;2022-12-18T07:18:09;-2.10;99.90
23568;DHT22;11962;50.838;4.430;2022-12-18T07:20:35;-2.10;99.90
23568;DHT22;11962;50.838;4.430;2022-12-18T07:23:05;-2.10;99.90
23568;DHT22;11962;50.838;4.430;2022-12-18T07:25:36;-2.10;99.90
23568;DHT22;11962;50.838;4.430;2022-12-18T07:28:03;-2.00;99.90
23568;DHT22;11962;50.838;4.430;2022-12-18T07:30:29;-2.10;99.90
23568;DHT22;11962;50.838;4.430;2022-12-18T07:32:54;-2.10;99.90
23568;DHT22;11962;50.838;4.430;2022-12-18T07:38:49;-2.00;99.90
23568;DHT22;11962;50.838;4.430;2022-12-18T07:41:15;-2.00;99.90
23568;DHT22;11962;50.838;4.430;2022-12-18T07:43:41;-2.00;99.90
23568;DHT22;11962;50.838;4.430;2022-12-18T07:46:08;-2.00;99.90
23568;DHT22;11962;50.838;4.430;2022-12-18T07:48:34;-2.00;99.90
23568;DHT22;11962;50.838;4.430;2022-12-18T07:51:01;-2.00;99.90
23568;DHT22;11962;50.838;4.430;2022-12-18T07:53:28;-2.00;99.90
23568;DHT22;11962;50.838;4.430;2022-12-18T07:56:02;-1.90;99.90
23568;DHT22;11962;50.838;4.430;2022-12-18T07:58:29;-1.90;99.90
23568;DHT22;11962;50.838;4.430;2022-12-18T08:01:05;-1.80;99.90
23568;DHT22;11962;50.838;4.430;2022-12-18T08:03:32;-1.70;99.90
23568;DHT22;11962;50.838;4.430;2022-12-18T08:06:13;-1.70;99.90
23568;DHT22;11962;50.838;4.430;2022-12-18T08:08:39;-1.60;99.90
23568;DHT22;11962;50.838;4.430;2022-12-18T08:11:06;-1.60;99.90
23568;DHT22;11962;50.838;4.430;2022-12-18T08:13:32;-1.50;99.90
23568;DHT22;11962;50.838;4.430;2022-12-18T08:16:04;-1.40;99.90
23568;DHT22;11962;50.838;4.430;2022-12-18T08:18:32;-1.30;99.90
23568;DHT22;11962;50.838;4.430;2022-12-18T08:21:11;-1.20;99.90
23568;DHT22;11962;50.838;4.430;2022-12-18T08:23:38;-1.10;99.90
23568;DHT22;11962;50.838;4.430;2022-12-18T08:26:03;-1.00;99.90
23568;DHT22;11962;50.838;4.430;2022-12-18T08:28:29;-0.80;99.90
23568;DHT22;11962;50.838;4.430;2022-12-18T08:30:55;-0.80;99.90
23568;DHT22;11962;50.838;4.430;2022-12-18T08:33:21;-0.60;99.90
23568;DHT22;11962;50.838;4.430;2022-12-18T08:36:05;-0.40;99.90
23568;DHT22;11962;50.838;4.430;2022-12-18T08:38:32;-0.20;99.90
23568;DHT22;11962;50.838;4.430;2022-12-18T08:41:03;-0.10;99.90
23568;DHT22;11962;50.838;4.430;2022-12-18T08:43:29;0.00;99.90
23568;DHT22;11962;50.838;4.430;2022-12-18T08:46:13;0.20;99.90
23568;DHT22;11962;50.838;4.430;2022-12-18T08:48:39;0.30;99.90
23568;DHT22;11962;50.838;4.430;2022-12-18T08:51:05;0.30;99.90
23568;DHT22;11962;50.838;4.430;2022-12-18T08:53:31;0.50;99.90
23568;DHT22;11962;50.838;4.430;2022-12-18T08:55:57;0.70;99.90
23568;DHT22;11962;50.838;4.430;2022-12-18T08:58:23;0.70;99.90
23568;DHT22;11962;50.838;4.430;2022-12-18T09:00:49;0.70;99.90
23568;DHT22;11962;50.838;4.430;2022-12-18T09:03:16;0.80;99.90
23568;DHT22;11962;50.838;4.430;2022-12-18T09:05:43;0.90;99.90
23568;DHT22;11962;50.838;4.430;2022-12-18T09:08:20;1.00;99.90
23568;DHT22;11962;50.838;4.430;2022-12-18T09:10:47;1.00;99.90
23568;DHT22;11962;50.838;4.430;2022-12-18T09:13:14;1.10;99.90
23568;DHT22;11962;50.838;4.430;2022-12-18T09:15:45;1.10;99.90
23568;DHT22;11962;50.838;4.430;2022-12-18T09:18:12;1.30;99.90
23568;DHT22;11962;50.838;4.430;2022-12-18T09:20:39;1.50;99.90
23568;DHT22;11962;50.838;4.430;2022-12-18T09:23:17;1.50;99.90
23568;DHT22;11962;50.838;4.430;2022-12-18T09:25:42;1.70;99.90
23568;DHT22;11962;50.838;4.430;2022-12-18T09:28:13;1.80;99.90
23568;DHT22;11962;50.838;4.430;2022-12-18T09:30:41;1.90;99.90
23568;DHT22;11962;50.838;4.430;2022-12-18T09:33:08;1.90;99.90
23568;DHT22;11962;50.838;4.430;2022-12-18T09:35:36;1.90;99.90
23568;DHT22;11962;50.838;4.430;2022-12-18T09:38:04;2.00;99.90
23568;DHT22;11962;50.838;4.430;2022-12-18T09:40:35;2.10;99.90
23568;DHT22;11962;50.838;4.430;2022-12-18T09:43:04;2.00;99.90
23568;DHT22;11962;50.838;4.430;2022-12-18T09:45:42;1.90;99.90
23568;DHT22;11962;50.838;4.430;2022-12-18T09:48:40;1.90;99.90
23568;DHT22;11962;50.838;4.430;2022-12-18T09:51:20;2.00;99.90
23568;DHT22;11962;50.838;4.430;2022-12-18T09:53:53;2.10;99.90
23568;DHT22;11962;50.838;4.430;2022-12-18T09:56:21;2.20;99.90
23568;DHT22;11962;50.838;4.430;2022-12-18T09:58:55;2.30;99.90
23568;DHT22;11962;50.838;4.430;2022-12-18T10:01:23;2.30;99.90
23568;DHT22;11962;50.838;4.430;2022-12-18T10:03:49;2.40;99.90
23568;DHT22;11962;50.838;4.430;2022-12-18T10:06:28;2.40;99.90
23568;DHT22;11962;50.838;4.430;2022-12-18T10:09:57;2.50;99.90
23568;DHT22;11962;50.838;4.430;2022-12-18T10:12:47;2.60;99.90
23568;DHT22;11962;50.838;4.430;2022-12-18T10:15:37;2.60;99.90
23568;DHT22;11962;50.838;4.430;2022-12-18T10:20:51;2.70;99.90
23568;DHT22;11962;50.838;4.430;2022-12-18T10:26:05;2.50;99.90
23568;DHT22;11962;50.838;4.430;2022-12-18T10:28:33;2.50;99.90
23568;DHT22;11962;50.838;4.430;2022-12-18T10:31:00;2.40;99.90
23568;DHT22;11962;50.838;4.430;2022-12-18T10:33:31;2.40;99.90
23568;DHT22;11962;50.838;4.430;2022-12-18T10:35:58;2.40;99.90
23568;DHT22;11962;50.838;4.430;2022-12-18T10:38:30;2.60;99.90
23568;DHT22;11962;50.838;4.430;2022-12-18T10:41:05;2.60;99.90
23568;DHT22;11962;50.838;4.430;2022-12-18T10:43:40;2.70;99.90
23568;DHT22;11962;50.838;4.430;2022-12-18T10:51:34;2.90;99.90
23568;DHT22;11962;50.838;4.430;2022-12-18T10:56:29;3.10;99.90
23568;DHT22;11962;50.838;4.430;2022-12-18T10:58:59;3.20;99.90
23568;DHT22;11962;50.838;4.430;2022-12-18T11:01:25;3.30;99.90
23568;DHT22;11962;50.838;4.430;2022-12-18T11:06:20;3.40;99.90
23568;DHT22;11962;50.838;4.430;2022-12-18T11:12:05;3.40;99.90
23568;DHT22;11962;50.838;4.430;2022-12-18T11:14:47;3.40;99.90
23568;DHT22;11962;50.838;4.430;2022-12-18T11:17:40;3.50;99.90
23568;DHT22;11962;50.838;4.430;2022-12-18T11:20:23;3.60;99.90
23568;DHT22;11962;50.838;4.430;2022-12-18T11:23:03;3.60;99.90
23568;DHT22;11962;50.838;4.430;2022-12-18T11:25:30;3.60;99.90
23568;DHT22;11962;50.838;4.430;2022-12-18T11:34:30;3.60;99.70
23568;DHT22;11962;50.838;4.430;2022-12-18T11:36:36;3.60;99.70
23568;DHT22;11962;50.838;4.430;2022-12-18T11:39:34;3.60;99.80
23568;DHT22;11962;50.838;4.430;2022-12-18T11:42:30;3.70;99.80
23568;DHT22;11962;50.838;4.430;2022-12-18T11:45:28;3.80;99.60
23568;DHT22;11962;50.838;4.430;2022-12-18T11:48:02;3.70;99.40
23568;DHT22;11962;50.838;4.430;2022-12-18T11:50:56;3.80;99.60
23568;DHT22;11962;50.838;4.430;2022-12-18T11:53:23;3.80;99.60
23568;DHT22;11962;50.838;4.430;2022-12-18T11:56:02;4.00;99.60
23568;DHT22;11962;50.838;4.430;2022-12-18T12:04:04;4.10;99.20
23568;DHT22;11962;50.838;4.430;2022-12-18T12:20:39;4.40;98.50
23568;DHT22;11962;50.838;4.430;2022-12-18T12:23:33;4.50;98.50
23568;DHT22;11962;50.838;4.430;2022-12-18T12:34:23;4.70;98.10
23568;DHT22;11962;50.838;4.430;2022-12-18T12:39:35;4.70;97.80
23568;DHT22;11962;50.838;4.430;2022-12-18T12:42:04;4.80;97.80
23568;DHT22;11962;50.838;4.430;2022-12-18T12:44:55;4.80;97.80
23568;DHT22;11962;50.838;4.430;2022-12-18T12:47:28;4.80;97.60
23568;DHT22;11962;50.838;4.430;2022-12-18T12:49:55;4.70;97.40
23568;DHT22;11962;50.838;4.430;2022-12-18T12:52:37;4.80;97.60
23568;DHT22;11962;50.838;4.430;2022-12-18T12:55:16;4.90;97.60
23568;DHT22;11962;50.838;4.430;2022-12-18T12:58:22;4.90;97.40
23568;DHT22;11962;50.838;4.430;2022-12-18T13:01:02;5.00;97.30
23568;DHT22;11962;50.838;4.430;2022-12-18T13:12:11;4.90;97.20
23568;DHT22;11962;50.838;4.430;2022-12-18T13:15:22;5.00;97.20
23568;DHT22;11962;50.838;4.430;2022-12-18T13:17:49;5.00;97.20
23568;DHT22;11962;50.838;4.430;2022-12-18T13:20:17;5.00;97.30
23568;DHT22;11962;50.838;4.430;2022-12-18T13:22:48;5.00;97.20
23568;DHT22;11962;50.838;4.430;2022-12-18T13:25:32;5.10;97.30
23568;DHT22;11962;50.838;4.430;2022-12-18T13:28:14;5.00;97.20
23568;DHT22;11962;50.838;4.430;2022-12-18T13:38:23;4.70;97.30
23568;DHT22;11962;50.838;4.430;2022-12-18T13:41:26;4.60;97.30
23568;DHT22;11962;50.838;4.430;2022-12-18T13:43:56;4.50;97.40
23568;DHT22;11962;50.838;4.430;2022-12-18T13:46:46;4.40;97.90
23568;DHT22;11962;50.838;4.430;2022-12-18T13:51:43;4.60;97.90
23568;DHT22;11962;50.838;4.430;2022-12-18T13:54:36;4.70;97.90
23568;DHT22;11962;50.838;4.430;2022-12-18T13:57:03;4.80;97.70
23568;DHT22;11962;50.838;4.430;2022-12-18T13:59:39;4.70;97.40
23568;DHT22;11962;50.838;4.430;2022-12-18T14:02:14;4.60;97.40
23568;DHT22;11962;50.838;4.430;2022-12-18T14:04:40;4.50;97.40
23568;DHT22;11962;50.838;4.430;2022-12-18T14:07:23;4.50;97.60
23568;DHT22;11962;50.838;4.430;2022-12-18T14:09:55;4.40;97.60
23568;DHT22;11962;50.838;4.430;2022-12-18T14:18:01;4.40;97.70
23568;DHT22;11962;50.838;4.430;2022-12-18T14:20:31;4.40;97.80
23568;DHT22;11962;50.838;4.430;2022-12-18T14:22:57;4.40;97.80
23568;DHT22;11962;50.838;4.430;2022-12-18T14:25:29;4.30;97.80
23568;DHT22;11962;50.838;4.430;2022-12-18T14:30:40;4.40;97.90
23568;DHT22;11962;50.838;4.430;2022-12-18T14:33:15;4.40;97.90
23568;DHT22;11962;50.838;4.430;2022-12-18T14:35:51;4.40;98.00
23568;DHT22;11962;50.838;4.430;2022-12-18T14:38:35;4.40;97.90
23568;DHT22;11962;50.838;4.430;2022-12-18T14:41:06;4.30;97.90
23568;DHT22;11962;50.838;4.430;2022-12-18T14:43:37;4.20;97.90
23568;DHT22;11962;50.838;4.430;2022-12-18T14:51:52;4.00;98.10
23568;DHT22;11962;50.838;4.430;2022-12-18T14:54:19;4.00;98.20
23568;DHT22;11962;50.838;4.430;2022-12-18T14:57:21;4.00;98.30
23568;DHT22;11962;50.838;4.430;2022-12-18T14:59:48;4.00;98.40
23568;DHT22;11962;50.838;4.430;2022-12-18T15:02:25;3.90;98.40
23568;DHT22;11962;50.838;4.430;2022-12-18T15:05:03;3.90;98.30
23568;DHT22;11962;50.838;4.430;2022-12-18T15:07:43;3.90;98.80
23568;DHT22;11962;50.838;4.430;2022-12-18T15:10:30;3.80;98.40
23568;DHT22;11962;50.838;4.430;2022-12-18T15:15:43;3.80;98.80
23568;DHT22;11962;50.838;4.430;2022-12-18T15:23:25;3.90;98.80
23568;DHT22;11962;50.838;4.430;2022-12-18T15:29:33;3.80;98.70
23568;DHT22;11962;50.838;4.430;2022-12-18T15:32:02;3.70;98.80
23568;DHT22;11962;50.838;4.430;2022-12-18T15:34:28;3.60;99.00
23568;DHT22;11962;50.838;4.430;2022-12-18T15:36:54;3.60;99.00
23568;DHT22;11962;50.838;4.430;2022-12-18T15:39:20;3.50;99.00
23568;DHT22;11962;50.838;4.430;2022-12-18T15:45:12;3.50;99.00
23568;DHT22;11962;50.838;4.430;2022-12-18T15:47:40;3.50;99.00
23568;DHT22;11962;50.838;4.430;2022-12-18T15:50:08;3.50;98.90
23568;DHT22;11962;50.838;4.430;2022-12-18T15:52:39;3.50;98.80
23568;DHT22;11962;50.838;4.430;2022-12-18T15:55:24;3.60;98.70
23568;DHT22;11962;50.838;4.430;2022-12-18T15:58:09;3.60;98.50
23568;DHT22;11962;50.838;4.430;2022-12-18T16:00:37;3.70;98.40
23568;DHT22;11962;50.838;4.430;2022-12-18T16:03:04;3.70;98.30
23568;DHT22;11962;50.838;4.430;2022-12-18T16:05:30;3.60;98.20
23568;DHT22;11962;50.838;4.430;2022-12-18T16:07:56;3.60;98.10
23568;DHT22;11962;50.838;4.430;2022-12-18T16:10:21;3.60;98.10
23568;DHT22;11962;50.838;4.430;2022-12-18T16:12:47;3.60;97.90
23568;DHT22;11962;50.838;4.430;2022-12-18T16:15:14;3.50;97.90
23568;DHT22;11962;50.838;4.430;2022-12-18T16:17:42;3.60;98.00
23568;DHT22;11962;50.838;4.430;2022-12-18T16:20:20;3.60;97.70
23568;DHT22;11962;50.838;4.430;2022-12-18T16:22:46;3.60;97.60
23568;DHT22;11962;50.838;4.430;2022-12-18T16:28:38;3.50;97.60
23568;DHT22;11962;50.838;4.430;2022-12-18T16:31:04;3.50;97.70
23568;DHT22;11962;50.838;4.430;2022-12-18T16:33:30;3.60;97.60
23568;DHT22;11962;50.838;4.430;2022-12-18T16:35:56;3.70;97.60
23568;DHT22;11962;50.838;4.430;2022-12-18T16:38:21;3.70;97.40
23568;DHT22;11962;50.838;4.430;2022-12-18T16:40:47;3.70;97.40
23568;DHT22;11962;50.838;4.430;2022-12-18T16:43:32;3.70;97.40
23568;DHT22;11962;50.838;4.430;2022-12-18T16:45:58;3.70;97.30
23568;DHT22;11962;50.838;4.430;2022-12-18T16:48:24;3.70;97.30
23568;DHT22;11962;50.838;4.430;2022-12-18T16:50:51;3.70;97.20
23568;DHT22;11962;50.838;4.430;2022-12-18T16:53:24;3.80;97.10
23568;DHT22;11962;50.838;4.430;2022-12-18T16:59:18;3.80;96.90
23568;DHT22;11962;50.838;4.430;2022-12-18T17:01:43;3.80;96.90
23568;DHT22;11962;50.838;4.430;2022-12-18T17:04:09;3.80;97.10
23568;DHT22;11962;50.838;4.430;2022-12-18T17:06:39;3.80;97.00
23568;DHT22;11962;50.838;4.430;2022-12-18T17:09:07;3.90;97.00
23568;DHT22;11962;50.838;4.430;2022-12-18T17:14:46;3.90;97.10
23568;DHT22;11962;50.838;4.430;2022-12-18T17:17:12;3.90;97.20
23568;DHT22;11962;50.838;4.430;2022-12-18T17:19:38;4.00;97.20
23568;DHT22;11962;50.838;4.430;2022-12-18T17:22:03;4.00;97.10
23568;DHT22;11962;50.838;4.430;2022-12-18T17:24:29;4.00;97.20
23568;DHT22;11962;50.838;4.430;2022-12-18T17:27:02;4.10;97.40
23568;DHT22;11962;50.838;4.430;2022-12-18T17:29:28;4.10;97.50
23568;DHT22;11962;50.838;4.430;2022-12-18T17:31:53;4.10;97.60
23568;DHT22;11962;50.838;4.430;2022-12-18T17:34:19;4.10;98.00
23568;DHT22;11962;50.838;4.430;2022-12-18T17:36:46;4.00;98.30
23568;DHT22;11962;50.838;4.430;2022-12-18T17:39:16;4.00;98.80
23568;DHT22;11962;50.838;4.430;2022-12-18T17:48:32;4.10;99.90
23568;DHT22;11962;50.838;4.430;2022-12-18T17:51:02;4.10;99.90
23568;DHT22;11962;50.838;4.430;2022-12-18T17:53:28;4.00;99.90
23568;DHT22;11962;50.838;4.430;2022-12-18T17:55:58;4.00;99.90
23568;DHT22;11962;50.838;4.430;2022-12-18T17:58:31;3.90;99.90
23568;DHT22;11962;50.838;4.430;2022-12-18T18:00:56;3.90;99.90
23568;DHT22;11962;50.838;4.430;2022-12-18T18:03:22;3.80;99.90
23568;DHT22;11962;50.838;4.430;2022-12-18T18:05:48;3.80;99.90
23568;DHT22;11962;50.838;4.430;2022-12-18T18:08:13;3.80;99.90
23568;DHT22;11962;50.838;4.430;2022-12-18T18:10:39;3.80;99.90
23568;DHT22;11962;50.838;4.430;2022-12-18T18:13:20;3.80;99.90
23568;DHT22;11962;50.838;4.430;2022-12-18T18:16:04;3.70;99.90
23568;DHT22;11962;50.838;4.430;2022-12-18T18:18:30;3.70;99.90
23568;DHT22;11962;50.838;4.430;2022-12-18T18:20:56;3.70;99.90
23568;DHT22;11962;50.838;4.430;2022-12-18T18:23:22;3.60;99.90
23568;DHT22;11962;50.838;4.430;2022-12-18T18:25:48;3.50;99.90
23568;DHT22;11962;50.838;4.430;2022-12-18T18:28:13;3.50;99.90
23568;DHT22;11962;50.838;4.430;2022-12-18T18:30:39;3.50;99.90
23568;DHT22;11962;50.838;4.430;2022-12-18T18:33:05;3.50;99.90
23568;DHT22;11962;50.838;4.430;2022-12-18T18:35:31;3.40;99.90
23568;DHT22;11962;50.838;4.430;2022-12-18T18:37:56;3.30;99.90
23568;DHT22;11962;50.838;4.430;2022-12-18T18:40:22;3.40;99.90
23568;DHT22;11962;50.838;4.430;2022-12-18T18:42:48;3.40;99.90